Station info - map view · info · telemetry · weather · raw · status · beacons · messages · bulletins · browse · moving · my account
Callsign, ship name or locator: Clear       
It is possible to search using wildcards (*?) after a prefix. Example: OH*
APRS station AD7GC-9 - show graphs
Map loading...
Last status: TinyTrak3+
Location: 43°59.97' N 121°18.63' W - locator CN93IX29RV - show map - static map
2.4 miles East bearing 77° from Deschutes River Woods, Deschutes County, Oregon, United States [?]
4.1 miles South bearing 177° from Bend, Deschutes County, Oregon, United States
20.0 miles South bearing 200° from Redmond, Deschutes County, Oregon, United States
Last position: 2019-04-10 23:32:26 EDT (14d 5h3m ago)
2019-04-10 20:32:26 PDT local time at Deschutes River Woods, United States [?]
Altitude: 3907 ft
Course: 146°
Speed: 12 MPH
Device: Byonics: TinyTrak3 (tracker)
Last path: AD7GC-9>APT314 via WIDE1-1,WIDE2-1,qAO,N6UZJ-10 (good)
Positions stored: 21454
Other SSIDs: AD7GC-7
Stations near current position of AD7GC-9 - show more
callsign distance last heard - EDT      callsign distance last heard - EDT
KI7UNJ-90.7 miles 313°2019-04-23 12:27:16 KI7UNJ-50.7 miles 309°2019-04-12 17:40:54
KJ7BLE-N0.8 miles 87°2019-04-23 14:01:51 KJ7BLE0.8 miles 87°2019-04-23 14:02:38
KK6GNP-51.9 miles 25°2019-04-01 20:37:19 KB5ZVR-92.0 miles 314°2019-04-24 19:18:13
EW50892.1 miles 56°2019-04-25 04:17:06 K4XU-52.2 miles 39°2019-04-23 18:10:27
W7AM-93.3 miles 329°2019-04-18 19:40:49 W7AM3.3 miles 329°2019-04-25 04:31:08
FW31533.3 miles 325°2019-04-25 04:35:32 KG7AV-93.9 miles 21°2019-04-25 04:35:13
KG7AV-43.9 miles 21°2019-04-25 04:26:59 KJ7CHC-54.0 miles 29°2019-04-09 17:09:49
KG7AV-104.2 miles 13°2019-04-25 04:24:36 KF7OUH-14.2 miles 7°2019-04-19 15:31:28
KK6GNP-74.5 miles 17°2019-04-07 19:57:10 W6BZZ4.6 miles 355°2019-04-23 18:23:39
N6UZJ-104.7 miles 358°2019-04-25 03:49:36 KJ7EVP-95.1 miles 27°2019-04-24 19:37:29
Stations which heard AD7GC-9 directly on radio –
callsign pkts first heard - EDT last heard longest (tx => rx) longest at - EDT
LARCH 2 2019-04-03 14:05:47 2019-04-03 14:08:06 CN85PL > CN85UR 24.6 miles 49° 2019-04-03 14:05:47
GRZZLY 4 2019-04-03 11:00:02 2019-04-10 15:42:57 CN94CK > CN94MK 39.9 miles 88° 2019-04-03 19:34:42
KC7ILK 2 2019-04-03 14:08:22 2019-04-03 14:13:00 CN85PL > CN85QQ 12.6 miles 6° 2019-04-03 14:08:22
W7GC-4 5 2019-04-03 17:36:04 2019-04-03 18:16:14 CN84QT > CN85CF 62.7 miles 298° 2019-04-03 18:16:14
MTHOOD 1 2019-04-03 14:09:16 2019-04-03 14:09:16 CN85PL > CN95DH 47.5 miles 106° 2019-04-03 14:09:16
W7SRA 4 2019-04-03 12:45:17 2019-04-03 13:25:00 CN84TS > CN84KU 35.7 miles 280° 2019-04-03 12:45:17
WB7QAZ-10 1 2019-04-03 13:44:48 2019-04-03 13:44:48 CN85OG > CN85QG 7.2 miles 86° 2019-04-03 13:44:48
KI7GKH-1 3 2019-04-03 14:07:11 2019-04-03 14:12:46 CN85PL > CN85QK 4.9 miles 146° 2019-04-03 14:12:46
SNTIAM 5 2019-04-03 11:44:46 2019-04-03 19:29:02 CN94BK > CN94BJ 1.8 miles 128° 2019-04-03 19:26:57
NA7Q-9 5 2019-04-03 14:03:49 2019-04-03 14:12:34 CN85PL > CN85QL 2.6 miles 71° 2019-04-03 14:04:30
BEAVRT 4 2019-04-03 13:54:03 2019-04-03 14:11:07 CN85PL > CN85OK 8.1 miles 242° 2019-04-03 14:11:07
KK7DS-1 3 2019-04-03 13:58:04 2019-04-03 14:10:41 CN85PK > CN85RL 10.1 miles 87° 2019-04-03 13:58:04
W7YAM 1 2019-04-03 17:48:14 2019-04-03 17:48:14 CN84LX > CN85KH 21.7 miles 346° 2019-04-03 17:48:14
K7RMO-1 6 2019-04-03 13:29:01 2019-04-03 17:47:17 CN85MA > CN85MI 23.1 miles 9° 2019-04-03 17:47:17
MSCOTT 9 2019-04-03 14:00:20 2019-04-03 17:22:12 CN85OJ > CN85RK 11.4 miles 62° 2019-04-03 17:22:12
MKSRDG 3 2019-04-03 13:12:24 2019-04-03 18:02:59 CN84MV > CN84PK 36.1 miles 157° 2019-04-03 17:54:00
KG7AV-4 15 2019-04-01 11:44:12 2019-04-10 15:31:16 CN94IA > CN94IB 3.2 miles 33° 2019-04-04 20:22:22
N6UZJ-10 25 2019-04-09 17:00:39 2019-04-10 23:32:26 CN93IX > CN94IB 4.7 miles 358° 2019-04-10 23:32:26

Only position packets which were originated by the station are shown here. The range statistics show some extra long hops, because some digipeaters do not correctly add themselves to the digipeater path. Please check the raw packets.
About this site
This page shows real-time information collected from the Automatic Position Reporting System Internet network (APRS-IS). APRS is used by amateur (ham) radio operators to transmit real-time position information, weather data, telemetry and messages over the radio. A vehicle equipped with a GPS receiver, a VHF transmitter or HF transceiver and a small computer device called a tracker transmits it's location, speed and course in a small data packet, which is then received by a nearby iGate receiving site which forwards the packet on the Internet. Systems connected to the Internet can send information on the APRS-IS without a radio transmitter, or collect and display information transmitted anywhere in the world.
FAQ · Blog · Discussion group · Linking to aprs.fi · AIS sites · Service status · Database statistics · Advertising on aprs.fi · Technical details · API · Change log · Planned changes · Credits and thanks · Terms Of Service · iPhone/iPad APRS